Bucks Landing, Louisiana
Current Conditions -  °F | °C
As of 3:53 PM on Wednesday 28 Jan 2015 (Local Time) from KAEX Reporting Station
Clear Clear  
Wind Chill: 71°   Ceiling: Unl
Heat Index: 71°   Visibility: 10mi
Dew Point: 39°   Wind: 7mph
Humidity: 31%   Direction: 160°SSE
Pressure: 30.14"   Gusts: NA
Location:  31.0356°N, 92.5053°W
Report Text: KAEX 282153Z 16006KT 10SM CLR 22/04 A3014 RMK AO2 SLP211 T02170039
Loading
Personal Weather Stations






























Interactive Weather Map New forecast layout! Learn more

10-Day Weather Forecast

Advertisements
Track Severe Weather on mobile